Главная страница
METAR-TAF:

METAR-TAF

Аэропорты :

Международный аэропорт имени Траяна Вуя

Тимишоара, Румыния

широта: 45-46N, долгота: 021-15E, высота над уровнем моря: 86 м

Текущие метеонаблюдения

Эта сводка был подготовлена 36 минут назад, в 20:00 UTC
Ветер 6 Узел от северо-северо-восточный
Температура 6°C
Влажность 81%
Давление 1025 hPa
Видимость 10 км и более
Нет облачности ниже 1500 м, и нет кучево-дождевой облачности

METAR: LRTR 152000Z 03006KT CAVOK 06/03 Q1025

Время: 22:36 (20:36 UTC)

Прогноз

Эта сводка был подготовлена 3 часа и 36 минут назад, в 17:00 UTC
Прогноз действительный с 15-го 18 UTC до 16-го 18 UTC
Ветер 8 Узел от северный
Видимость 10 км и более
Нет облачности ниже 1500 м, и нет кучево-дождевой облачности
изменения
С 16-го 03 UTC до 16-го 05 UTC
Ветер 10 Узел от восточный

TAF: LRTR 151700Z 1518/1618 36008KT CAVOK BECMG 1603/1605 08010KT

Метеонаблюдения и прогнозы для более 4000 аэропортов (сводки METAR и TAF).

Имеющиеся станции представлены на карте желтыми и красными точками.

Чтобы увидеть название станции, наведите на нее мышь.

Затем щелкните, чтобы увидеть метеонаблюдения и метеопрогнозы.

Управление картой: чтобы увеличить масштаб, щелкните зеленые кнопки с черным крестиком; чтобы уменьшить масштаб, щелкните зеленую кнопку с тире; для просмотра соседних карт щелкайте зеленые стрелки.


METAR-TAF: